createdAt,value
2023-01-29T00:00:19.655Z,2.89
2023-01-29T00:01:22.421Z,2.89
2023-01-29T00:02:25.480Z,2.88
2023-01-29T00:03:28.618Z,2.85
2023-01-29T00:04:31.297Z,2.83
2023-01-29T00:05:34.527Z,2.84
2023-01-29T00:06:37.153Z,2.84
2023-01-29T00:07:39.813Z,2.83
2023-01-29T00:08:42.390Z,2.82
2023-01-29T00:09:45.081Z,2.79
2023-01-29T00:10:47.746Z,2.8
2023-01-29T00:11:50.382Z,2.82
2023-01-29T00:12:53.048Z,2.8
2023-01-29T00:13:55.673Z,2.81
2023-01-29T00:14:58.354Z,2.82
2023-01-29T00:16:01.102Z,2.79
2023-01-29T00:17:03.945Z,2.81
2023-01-29T00:18:06.776Z,2.82
2023-01-29T00:19:09.393Z,2.83
2023-01-29T00:20:12.063Z,2.83
2023-01-29T00:21:14.729Z,2.81
2023-01-29T00:22:17.385Z,2.78
2023-01-29T00:23:20.103Z,2.75
2023-01-29T00:24:23.036Z,2.72
2023-01-29T00:25:25.721Z,2.71
2023-01-29T00:26:28.341Z,2.72
2023-01-29T00:27:30.988Z,2.73
2023-01-29T00:28:33.653Z,2.75
2023-01-29T00:29:36.285Z,2.77
2023-01-29T00:30:38.942Z,2.77
2023-01-29T00:31:42.083Z,2.75
2023-01-29T00:32:45.377Z,2.74
2023-01-29T00:33:48.005Z,2.72
2023-01-29T00:34:50.632Z,2.73
2023-01-29T00:35:53.272Z,2.75
2023-01-29T00:36:55.889Z,2.76
2023-01-29T00:37:58.584Z,2.78
2023-01-29T00:39:01.243Z,2.77
2023-01-29T00:40:03.868Z,2.78
2023-01-29T00:41:06.563Z,2.81
2023-01-29T00:42:09.402Z,2.85
2023-01-29T00:43:12.068Z,2.85
2023-01-29T00:44:14.741Z,2.88
2023-01-29T00:45:32.086Z,2.88
2023-01-29T00:46:36.532Z,2.92
2023-01-29T00:47:39.282Z,2.93
2023-01-29T00:48:41.919Z,2.97
2023-01-29T00:49:44.603Z,2.99
2023-01-29T00:50:57.274Z,3.01
2023-01-29T00:51:59.473Z,3.01
2023-01-29T00:53:02.081Z,3.02
2023-01-29T00:54:04.778Z,3.01
2023-01-29T00:55:07.423Z,3.02
2023-01-29T00:56:10.070Z,3.02
2023-01-29T00:57:12.761Z,3.01
2023-01-29T00:58:15.386Z,3.01
2023-01-29T00:59:18.077Z,3
2023-01-29T01:00:20.791Z,3.02
2023-01-29T01:01:23.409Z,3.02
2023-01-29T01:02:26.101Z,3.01
2023-01-29T01:03:28.776Z,2.98
2023-01-29T01:04:35.153Z,2.99
2023-01-29T01:05:37.527Z,3.01
2023-01-29T01:06:40.189Z,3.01
2023-01-29T01:07:42.845Z,3.01
2023-01-29T01:08:45.518Z,3.02
2023-01-29T01:09:48.207Z,3.02
2023-01-29T01:10:50.854Z,3.01
2023-01-29T01:11:53.498Z,2.99
2023-01-29T01:12:56.150Z,2.99
2023-01-29T01:13:58.782Z,3
2023-01-29T01:15:01.472Z,2.97
2023-01-29T01:16:04.182Z,2.95
2023-01-29T01:17:06.818Z,2.94
2023-01-29T01:18:09.458Z,2.95
2023-01-29T01:19:12.772Z,2.94
2023-01-29T01:20:16.548Z,2.93
2023-01-29T01:21:19.579Z,2.88
2023-01-29T01:22:22.247Z,2.88
2023-01-29T01:23:24.900Z,2.88
2023-01-29T01:24:27.749Z,2.82
2023-01-29T01:25:30.558Z,2.81
2023-01-29T01:26:33.190Z,2.8
2023-01-29T01:27:39.371Z,2.79
2023-01-29T01:28:41.894Z,2.74
2023-01-29T01:29:44.506Z,2.68
2023-01-29T01:30:47.271Z,2.67
2023-01-29T01:31:50.132Z,2.65
2023-01-29T01:32:52.828Z,2.63
2023-01-29T01:33:55.501Z,2.63
2023-01-29T01:34:58.157Z,2.6
2023-01-29T01:36:00.830Z,2.56
2023-01-29T01:37:03.470Z,2.53
2023-01-29T01:38:06.117Z,2.5
2023-01-29T01:39:08.762Z,2.48
2023-01-29T01:40:11.382Z,2.49
2023-01-29T01:41:14.111Z,2.5
2023-01-29T01:42:16.770Z,2.52
2023-01-29T01:43:19.434Z,2.5
2023-01-29T01:44:22.108Z,2.51
2023-01-29T01:45:24.817Z,2.49
2023-01-29T01:46:27.472Z,2.51
2023-01-29T01:47:30.091Z,2.54
2023-01-29T01:48:32.765Z,2.56
2023-01-29T01:49:35.459Z,2.58
2023-01-29T01:50:38.162Z,2.58
2023-01-29T01:51:40.873Z,2.55
2023-01-29T01:52:43.543Z,2.52
2023-01-29T01:53:46.147Z,2.53
2023-01-29T01:54:48.896Z,2.53
2023-01-29T01:55:51.563Z,2.54
2023-01-29T01:56:54.220Z,2.57
2023-01-29T01:57:56.879Z,2.58
2023-01-29T01:58:59.556Z,2.53
2023-01-29T02:00:02.188Z,2.51
2023-01-29T02:01:05.142Z,2.52
2023-01-29T02:02:08.870Z,2.55
2023-01-29T02:03:11.528Z,2.57
2023-01-29T02:04:14.242Z,2.59
2023-01-29T02:05:16.917Z,2.6
2023-01-29T02:06:19.591Z,2.62
2023-01-29T02:07:22.292Z,2.65
2023-01-29T02:08:24.941Z,2.65
2023-01-29T02:09:27.588Z,2.67
2023-01-29T02:10:30.249Z,2.7
2023-01-29T02:11:32.915Z,2.72
2023-01-29T02:12:35.617Z,2.72
2023-01-29T02:13:38.252Z,2.71
2023-01-29T02:14:40.939Z,2.69
2023-01-29T02:15:43.589Z,2.68
2023-01-29T02:16:46.280Z,2.68
2023-01-29T02:17:49.144Z,2.71
2023-01-29T02:18:51.849Z,2.69
2023-01-29T02:19:54.522Z,2.68
2023-01-29T02:20:57.187Z,2.64
2023-01-29T02:21:59.868Z,2.58
2023-01-29T02:23:03.991Z,2.57
2023-01-29T02:24:06.876Z,2.56
2023-01-29T02:25:09.792Z,2.56
2023-01-29T02:26:12.694Z,2.59
2023-01-29T02:27:15.375Z,2.59
2023-01-29T02:28:18.029Z,2.6
2023-01-29T02:29:20.627Z,2.63
2023-01-29T02:30:23.882Z,2.62
2023-01-29T02:31:26.714Z,2.61
2023-01-29T02:32:29.471Z,2.58
2023-01-29T02:33:32.124Z,2.57
2023-01-29T02:34:34.779Z,2.56
2023-01-29T02:35:37.436Z,2.56
2023-01-29T02:36:40.057Z,2.56
2023-01-29T02:37:43.130Z,2.53
2023-01-29T02:38:45.382Z,2.5
2023-01-29T02:39:48.028Z,2.49
2023-01-29T02:40:50.653Z,2.5
2023-01-29T02:41:53.343Z,2.51
2023-01-29T02:42:56.014Z,2.5
2023-01-29T02:43:58.690Z,2.5
2023-01-29T02:45:01.327Z,2.48
2023-01-29T02:46:04.317Z,2.5
2023-01-29T02:47:07.054Z,2.48
2023-01-29T02:48:09.670Z,2.49
2023-01-29T02:49:12.324Z,2.5
2023-01-29T02:50:15.913Z,2.51
2023-01-29T02:51:19.083Z,2.53
2023-01-29T02:52:21.759Z,2.55
2023-01-29T02:53:24.446Z,2.59
2023-01-29T02:54:27.134Z,2.61
2023-01-29T02:55:52.343Z,2.6
2023-01-29T02:56:57.329Z,2.59
2023-01-29T02:57:59.878Z,2.61
2023-01-29T02:59:03.157Z,2.6
2023-01-29T03:00:05.748Z,2.62
2023-01-29T03:01:08.465Z,2.61
2023-01-29T03:02:11.256Z,2.6
2023-01-29T03:03:13.977Z,2.6
2023-01-29T03:04:16.639Z,2.61
2023-01-29T03:05:19.239Z,2.6
2023-01-29T03:06:32.095Z,2.58
2023-01-29T03:07:33.931Z,2.59
2023-01-29T03:08:36.585Z,2.58
2023-01-29T03:09:39.216Z,2.58
2023-01-29T03:10:41.842Z,2.57
2023-01-29T03:11:44.475Z,2.57
2023-01-29T03:12:57.145Z,2.58
2023-01-29T03:13:59.364Z,2.6
2023-01-29T03:15:02.030Z,2.6
2023-01-29T03:16:04.875Z,2.55
2023-01-29T03:17:07.785Z,2.55
2023-01-29T03:18:10.479Z,2.55
2023-01-29T03:19:13.103Z,2.56
2023-01-29T03:20:16.887Z,2.55
2023-01-29T03:21:20.150Z,2.54
2023-01-29T03:22:22.797Z,2.51
2023-01-29T03:23:25.471Z,2.48
2023-01-29T03:24:28.335Z,2.48
2023-01-29T03:25:31.023Z,2.49
2023-01-29T03:26:33.653Z,2.48
2023-01-29T03:27:36.321Z,2.48
2023-01-29T03:28:38.973Z,2.46
2023-01-29T03:29:41.630Z,2.45
2023-01-29T03:30:44.331Z,2.45
2023-01-29T03:31:47.125Z,2.47
2023-01-29T03:32:49.842Z,2.45
2023-01-29T03:33:52.512Z,2.44
2023-01-29T03:34:55.196Z,2.42
2023-01-29T03:35:57.810Z,2.41
2023-01-29T03:37:00.416Z,2.42
2023-01-29T03:38:03.066Z,2.42
2023-01-29T03:39:05.720Z,2.4
2023-01-29T03:40:08.445Z,2.38
2023-01-29T03:41:11.102Z,2.39
2023-01-29T03:42:13.744Z,2.39
2023-01-29T03:43:16.424Z,2.39
2023-01-29T03:44:19.120Z,2.35
2023-01-29T03:45:21.997Z,2.32
2023-01-29T03:46:24.610Z,2.29
2023-01-29T03:47:27.271Z,2.25
2023-01-29T03:48:29.900Z,2.24
2023-01-29T03:49:32.802Z,2.24
2023-01-29T03:50:35.410Z,2.26
2023-01-29T03:51:38.047Z,2.28
2023-01-29T03:52:40.670Z,2.29
2023-01-29T03:53:43.368Z,2.3
2023-01-29T03:54:46.060Z,2.3
2023-01-29T03:55:48.753Z,2.3
2023-01-29T03:56:51.375Z,2.33
2023-01-29T03:57:54.017Z,2.38
2023-01-29T03:58:56.708Z,2.37
2023-01-29T03:59:59.374Z,2.36
2023-01-29T04:01:02.040Z,2.37
2023-01-29T04:02:04.673Z,2.37
2023-01-29T04:03:12.848Z,2.42
2023-01-29T04:04:15.369Z,2.46
2023-01-29T04:05:18.091Z,2.5
2023-01-29T04:06:20.808Z,2.51
2023-01-29T04:07:23.490Z,2.46
2023-01-29T04:08:26.157Z,2.42
2023-01-29T04:09:28.832Z,2.38
2023-01-29T04:10:31.458Z,2.37
2023-01-29T04:11:34.106Z,2.34
2023-01-29T04:12:36.732Z,2.32
2023-01-29T04:13:39.443Z,2.31
2023-01-29T04:14:45.534Z,2.32
2023-01-29T04:15:48.081Z,2.3
2023-01-29T04:16:50.687Z,2.3
2023-01-29T04:17:53.386Z,2.32
2023-01-29T04:18:56.062Z,2.31
2023-01-29T04:19:58.740Z,2.3
2023-01-29T04:21:01.409Z,2.3
2023-01-29T04:22:04.730Z,2.31
2023-01-29T04:23:07.393Z,2.26
2023-01-29T04:24:10.173Z,2.23
2023-01-29T04:25:12.841Z,2.22
2023-01-29T04:26:15.476Z,2.19
2023-01-29T04:27:18.216Z,2.21
2023-01-29T04:28:20.939Z,2.24
2023-01-29T04:29:23.758Z,2.23
2023-01-29T04:30:26.442Z,2.23
2023-01-29T04:31:29.490Z,2.23
2023-01-29T04:32:32.347Z,2.21
2023-01-29T04:33:34.989Z,2.19
2023-01-29T04:34:37.639Z,2.19
2023-01-29T04:35:40.291Z,2.2
2023-01-29T04:36:47.297Z,2.2
2023-01-29T04:37:54.640Z,2.23
2023-01-29T04:38:57.265Z,2.24
2023-01-29T04:39:59.909Z,2.27
2023-01-29T04:41:20.857Z,2.29
2023-01-29T04:42:22.661Z,2.3
2023-01-29T04:43:25.237Z,2.28
2023-01-29T04:44:27.836Z,2.28
2023-01-29T04:45:30.441Z,2.28
2023-01-29T04:46:33.057Z,2.27
2023-01-29T04:47:35.766Z,2.25
2023-01-29T04:48:38.511Z,2.23
2023-01-29T04:49:47.910Z,2.27
2023-01-29T04:50:51.988Z,2.28
2023-01-29T04:51:54.552Z,2.26
2023-01-29T04:52:57.200Z,2.26
2023-01-29T04:53:59.866Z,2.23
2023-01-29T04:55:02.501Z,2.23
2023-01-29T04:56:05.130Z,2.24
2023-01-29T04:57:07.771Z,2.26
2023-01-29T04:58:11.394Z,2.28
2023-01-29T04:59:13.914Z,2.3
2023-01-29T05:00:17.719Z,2.29
2023-01-29T05:01:20.977Z,2.3
2023-01-29T05:02:23.640Z,2.3
2023-01-29T05:03:26.257Z,2.31
2023-01-29T05:04:28.878Z,2.35
2023-01-29T05:05:31.573Z,2.34
2023-01-29T05:06:34.241Z,2.33
2023-01-29T05:07:36.903Z,2.28
2023-01-29T05:08:39.557Z,2.26
2023-01-29T05:09:42.228Z,2.26
2023-01-29T05:10:44.975Z,2.25
2023-01-29T05:12:15.388Z,2.23
2023-01-29T05:13:19.830Z,2.22
2023-01-29T05:14:22.348Z,2.24
2023-01-29T05:15:24.910Z,2.24
2023-01-29T05:16:27.649Z,2.24
2023-01-29T05:17:30.304Z,2.22
2023-01-29T05:18:32.919Z,2.19
2023-01-29T05:19:35.565Z,2.17
2023-01-29T05:20:38.310Z,2.17
2023-01-29T05:21:41.402Z,2.15
2023-01-29T05:22:44.030Z,2.16
2023-01-29T05:23:46.701Z,2.16
2023-01-29T05:24:49.333Z,2.16
2023-01-29T05:25:52.042Z,2.17
2023-01-29T05:26:54.671Z,2.17
2023-01-29T05:27:57.243Z,2.19
2023-01-29T05:28:59.836Z,2.21
2023-01-29T05:30:02.490Z,2.22
2023-01-29T05:31:05.685Z,2.23
2023-01-29T05:32:08.472Z,2.23
2023-01-29T05:33:11.085Z,2.24
2023-01-29T05:34:13.765Z,2.24
2023-01-29T05:35:16.451Z,2.23
2023-01-29T05:36:19.097Z,2.24
2023-01-29T05:37:21.740Z,2.23
2023-01-29T05:38:26.680Z,2.2
2023-01-29T05:39:29.365Z,2.18
2023-01-29T05:40:31.994Z,2.17
2023-01-29T05:41:34.619Z,2.16
2023-01-29T05:42:37.250Z,2.16
2023-01-29T05:43:39.988Z,2.16
2023-01-29T05:44:42.863Z,2.12
2023-01-29T05:45:45.568Z,2.07
2023-01-29T05:46:48.454Z,2.02
2023-01-29T05:47:51.124Z,2.04
2023-01-29T05:48:53.739Z,2.05
2023-01-29T05:49:56.442Z,2.03
2023-01-29T05:50:59.075Z,2.06
2023-01-29T05:52:01.738Z,2.07
2023-01-29T05:53:04.330Z,2.07
2023-01-29T05:54:07.001Z,2.04
2023-01-29T05:55:28.548Z,2.04
2023-01-29T05:56:33.972Z,2.06
2023-01-29T05:57:36.521Z,2.08
2023-01-29T05:58:41.450Z,2.06
2023-01-29T05:59:43.433Z,2.06
2023-01-29T06:00:46.108Z,2.05
2023-01-29T06:01:48.883Z,2.02
2023-01-29T06:02:51.774Z,2.01
2023-01-29T06:03:54.471Z,2
2023-01-29T06:04:57.173Z,2.02
2023-01-29T06:05:59.875Z,2.02
2023-01-29T06:07:02.653Z,2.03
2023-01-29T06:08:22.467Z,2.01
2023-01-29T06:09:31.364Z,2.01
2023-01-29T06:10:34.000Z,1.98
2023-01-29T06:11:36.610Z,1.95
2023-01-29T06:12:39.232Z,1.96
2023-01-29T06:13:41.932Z,1.97
2023-01-29T06:14:44.619Z,1.98
2023-01-29T06:15:47.496Z,2
2023-01-29T06:16:50.245Z,2.01
2023-01-29T06:17:52.903Z,2.03
2023-01-29T06:18:55.551Z,2.06
2023-01-29T06:19:58.170Z,2.07
2023-01-29T06:21:00.825Z,2.09
2023-01-29T06:22:03.467Z,2.09
2023-01-29T06:23:06.129Z,2.12
2023-01-29T06:24:08.929Z,2.13
2023-01-29T06:25:11.651Z,2.1
2023-01-29T06:26:14.315Z,2.07
2023-01-29T06:27:16.976Z,2.05
2023-01-29T06:28:19.647Z,2
2023-01-29T06:29:22.307Z,1.98
2023-01-29T06:30:24.968Z,1.95
2023-01-29T06:31:39.223Z,1.9
2023-01-29T06:32:42.591Z,1.87
2023-01-29T06:33:45.181Z,1.85
2023-01-29T06:34:50.005Z,1.84
2023-01-29T06:35:52.505Z,1.81
2023-01-29T06:36:55.211Z,1.82
2023-01-29T06:37:57.910Z,1.83
2023-01-29T06:39:00.459Z,1.85
2023-01-29T06:40:03.123Z,1.82
2023-01-29T06:41:05.712Z,1.8
2023-01-29T06:42:08.313Z,1.8
2023-01-29T06:43:11.043Z,1.82
2023-01-29T06:44:13.733Z,1.8
2023-01-29T06:45:16.411Z,1.74
2023-01-29T06:46:19.068Z,1.72
2023-01-29T06:47:21.666Z,1.7
2023-01-29T06:48:24.318Z,1.67
2023-01-29T06:49:26.977Z,1.65
2023-01-29T06:50:29.878Z,1.64
2023-01-29T06:51:32.511Z,1.66
2023-01-29T06:52:35.292Z,1.63
2023-01-29T06:53:37.886Z,1.58
2023-01-29T06:54:40.554Z,1.57
2023-01-29T06:55:43.179Z,1.53
2023-01-29T06:56:45.821Z,1.47
2023-01-29T06:57:48.421Z,1.46
2023-01-29T06:58:51.058Z,1.44
2023-01-29T06:59:53.744Z,1.41
2023-01-29T07:00:56.639Z,1.41
2023-01-29T07:02:00.503Z,1.44
2023-01-29T07:03:03.164Z,1.43
2023-01-29T07:04:05.865Z,1.45
2023-01-29T07:05:08.514Z,1.48
2023-01-29T07:06:16.763Z,1.5
2023-01-29T07:07:17.719Z,1.53
2023-01-29T07:08:20.389Z,1.57
2023-01-29T07:09:28.639Z,1.61
2023-01-29T07:10:30.910Z,1.64
2023-01-29T07:11:33.523Z,1.69
2023-01-29T07:12:36.145Z,1.71
2023-01-29T07:13:38.775Z,1.73
2023-01-29T07:14:41.402Z,1.76
2023-01-29T07:15:44.112Z,1.77
2023-01-29T07:16:46.790Z,1.8
2023-01-29T07:17:49.471Z,1.82
2023-01-29T07:18:52.132Z,1.8
2023-01-29T07:19:55.350Z,1.77
2023-01-29T07:20:58.001Z,1.76
2023-01-29T07:22:00.657Z,1.77
2023-01-29T07:23:05.794Z,1.79
2023-01-29T07:24:07.942Z,1.85
2023-01-29T07:25:10.605Z,1.88
2023-01-29T07:26:13.279Z,1.93
2023-01-29T07:27:15.919Z,1.97
2023-01-29T07:28:18.589Z,1.98
2023-01-29T07:29:21.245Z,2.01
2023-01-29T07:30:23.947Z,2.05
2023-01-29T07:31:27.095Z,2.07
2023-01-29T07:32:29.881Z,2.11
2023-01-29T07:33:32.564Z,2.13
2023-01-29T07:34:35.273Z,2.13
2023-01-29T07:35:37.872Z,2.16
2023-01-29T07:36:40.508Z,2.19
2023-01-29T07:37:43.173Z,2.21
2023-01-29T07:38:45.828Z,2.23
2023-01-29T07:39:48.465Z,2.23
2023-01-29T07:40:51.323Z,2.25
2023-01-29T07:41:53.972Z,2.28
2023-01-29T07:42:56.646Z,2.31
2023-01-29T07:43:59.259Z,2.33
2023-01-29T07:45:01.981Z,2.36
2023-01-29T07:46:04.960Z,2.37
2023-01-29T07:47:11.187Z,2.39
2023-01-29T07:48:13.614Z,2.39
2023-01-29T07:49:16.297Z,2.37
2023-01-29T07:50:19.409Z,2.38
2023-01-29T07:51:22.025Z,2.4
2023-01-29T07:52:24.667Z,2.42
2023-01-29T07:53:27.347Z,2.43
2023-01-29T07:54:30.026Z,2.43
2023-01-29T07:55:32.675Z,2.46
2023-01-29T07:56:35.353Z,2.5
2023-01-29T07:57:38.015Z,2.54
2023-01-29T07:58:40.830Z,2.59
2023-01-29T07:59:43.464Z,2.63
2023-01-29T08:00:46.359Z,2.66
2023-01-29T08:01:49.113Z,2.68
2023-01-29T08:02:55.262Z,2.69
2023-01-29T08:03:57.670Z,2.71
2023-01-29T08:05:00.305Z,2.74
2023-01-29T08:06:02.982Z,2.74
2023-01-29T08:07:05.665Z,2.71
2023-01-29T08:08:08.891Z,2.68
2023-01-29T08:09:11.571Z,2.68
2023-01-29T08:10:14.205Z,2.66
2023-01-29T08:11:16.848Z,2.66
2023-01-29T08:12:19.565Z,2.68
2023-01-29T08:13:22.196Z,2.68
2023-01-29T08:14:24.854Z,2.62
2023-01-29T08:15:27.469Z,2.57
2023-01-29T08:16:30.274Z,2.53
2023-01-29T08:17:33.118Z,2.52
2023-01-29T08:18:35.867Z,2.53
2023-01-29T08:19:38.751Z,2.54
2023-01-29T08:20:41.430Z,2.53
2023-01-29T08:21:49.976Z,2.53
2023-01-29T08:22:57.104Z,2.55
2023-01-29T08:24:02.844Z,2.57
2023-01-29T08:25:09.089Z,2.58
2023-01-29T08:26:11.493Z,2.59
2023-01-29T08:27:14.097Z,2.59
2023-01-29T08:28:16.739Z,2.56
2023-01-29T08:29:19.358Z,2.55
2023-01-29T08:30:22.047Z,2.56
2023-01-29T08:31:24.929Z,2.59
2023-01-29T08:32:27.610Z,2.62
2023-01-29T08:33:39.673Z,2.64
2023-01-29T08:34:41.849Z,2.67
2023-01-29T08:35:44.477Z,2.68
2023-01-29T08:36:47.153Z,2.7
2023-01-29T08:37:49.753Z,2.7
2023-01-29T08:38:52.458Z,2.71
2023-01-29T08:39:55.115Z,2.72
2023-01-29T08:40:57.786Z,2.72
2023-01-29T08:42:00.446Z,2.71
2023-01-29T08:43:07.952Z,2.66
2023-01-29T08:44:11.763Z,2.64
2023-01-29T08:45:14.380Z,2.62
2023-01-29T08:46:17.202Z,2.58
2023-01-29T08:47:19.924Z,2.59
2023-01-29T08:48:22.536Z,2.6
2023-01-29T08:49:25.158Z,2.61
2023-01-29T08:50:27.848Z,2.64
2023-01-29T08:51:30.477Z,2.65
2023-01-29T08:52:33.159Z,2.67
2023-01-29T08:53:35.845Z,2.7
2023-01-29T08:54:38.559Z,2.71
2023-01-29T08:55:41.225Z,2.72
2023-01-29T08:56:43.893Z,2.72
2023-01-29T08:57:46.572Z,2.75
2023-01-29T08:58:49.170Z,2.8
2023-01-29T08:59:51.778Z,2.85
2023-01-29T09:00:54.529Z,2.91
2023-01-29T09:01:57.203Z,2.96
2023-01-29T09:03:00.483Z,3.01
2023-01-29T09:04:03.134Z,3
2023-01-29T09:05:05.794Z,3.01
2023-01-29T09:06:08.437Z,3.04
2023-01-29T09:07:11.090Z,3.06
2023-01-29T09:08:13.773Z,3.08
2023-01-29T09:09:16.416Z,3.13
2023-01-29T09:10:19.091Z,3.17
2023-01-29T09:11:21.693Z,3.19
2023-01-29T09:12:24.358Z,3.21
2023-01-29T09:13:27.016Z,3.26
2023-01-29T09:14:29.651Z,3.28
2023-01-29T09:15:32.277Z,3.29
2023-01-29T09:16:34.969Z,3.3
2023-01-29T09:17:37.684Z,3.32
2023-01-29T09:18:40.381Z,3.35
2023-01-29T09:19:43.072Z,3.37
2023-01-29T09:20:45.731Z,3.36
2023-01-29T09:21:48.375Z,3.35
2023-01-29T09:22:51.005Z,3.33
2023-01-29T09:23:53.662Z,3.31
2023-01-29T09:24:56.322Z,3.35
2023-01-29T09:25:58.939Z,3.41
2023-01-29T09:27:01.581Z,3.49
2023-01-29T09:28:04.367Z,3.55
2023-01-29T09:29:07.021Z,3.6
2023-01-29T09:30:09.710Z,3.67
2023-01-29T09:31:13.503Z,3.72
2023-01-29T09:32:51.944Z,3.76
2023-01-29T09:33:37.683Z,3.79
2023-01-29T09:34:45.857Z,3.82
2023-01-29T09:35:48.667Z,3.87
2023-01-29T09:36:51.008Z,3.94
2023-01-29T09:37:53.866Z,3.99
2023-01-29T09:38:56.478Z,4
2023-01-29T09:39:59.143Z,3.98
2023-01-29T09:41:01.784Z,3.97
2023-01-29T09:42:04.402Z,4.01
2023-01-29T09:43:07.041Z,4.08
2023-01-29T09:44:09.703Z,4.16
2023-01-29T09:45:12.681Z,4.21
2023-01-29T09:46:15.802Z,4.24
2023-01-29T09:47:18.570Z,4.26
2023-01-29T09:48:21.182Z,4.29
2023-01-29T09:49:23.832Z,4.27
2023-01-29T09:50:26.490Z,4.26
2023-01-29T09:51:29.209Z,4.26
2023-01-29T09:52:42.062Z,4.23
2023-01-29T09:53:43.824Z,4.26
2023-01-29T09:54:46.427Z,4.29
2023-01-29T09:55:49.046Z,4.33
2023-01-29T09:56:51.698Z,4.36
2023-01-29T09:57:54.416Z,4.39
2023-01-29T09:58:57.044Z,4.43
2023-01-29T10:00:00.531Z,4.48
2023-01-29T10:01:03.566Z,4.53
2023-01-29T10:02:06.728Z,4.59
2023-01-29T10:03:09.622Z,4.66
2023-01-29T10:04:12.447Z,4.72
2023-01-29T10:05:16.795Z,4.76
2023-01-29T10:06:20.254Z,4.78
2023-01-29T10:07:22.925Z,4.79
2023-01-29T10:08:25.575Z,4.79
2023-01-29T10:09:28.285Z,4.81
2023-01-29T10:10:30.906Z,4.85
2023-01-29T10:11:50.201Z,4.89
2023-01-29T10:12:57.534Z,4.9
2023-01-29T10:14:00.200Z,4.93
2023-01-29T10:15:02.858Z,4.91
2023-01-29T10:16:05.481Z,4.94
2023-01-29T10:17:08.380Z,4.99
2023-01-29T10:18:11.132Z,5.03
2023-01-29T10:19:13.794Z,5.05
2023-01-29T10:20:43.067Z,5.12
2023-01-29T10:22:16.645Z,5.17
2023-01-29T10:23:23.185Z,5.25
2023-01-29T10:24:28.736Z,5.36
2023-01-29T10:25:44.525Z,5.42
2023-01-29T10:26:47.184Z,5.51
2023-01-29T10:27:49.977Z,5.54
2023-01-29T10:29:10.425Z,5.55
2023-01-29T10:30:23.841Z,5.56
2023-01-29T10:31:48.245Z,5.58
2023-01-29T10:33:07.727Z,5.59
2023-01-29T10:35:39.983Z,5.55
2023-01-29T10:36:42.547Z,5.51
2023-01-29T10:37:45.179Z,5.49
2023-01-29T10:38:55.318Z,5.46
2023-01-29T10:39:57.563Z,5.45
2023-01-29T10:41:09.688Z,5.42
2023-01-29T10:42:11.571Z,5.4
2023-01-29T10:43:14.161Z,5.41
2023-01-29T10:44:20.294Z,5.41
2023-01-29T10:46:11.540Z,5.42
2023-01-29T10:47:15.804Z,5.43
2023-01-29T10:48:18.407Z,5.43
2023-01-29T10:49:20.925Z,5.42
2023-01-29T10:50:23.533Z,5.44
2023-01-29T10:51:27.167Z,5.45
2023-01-29T10:52:29.765Z,5.47
2023-01-29T10:55:16.997Z,5.5
2023-01-29T10:56:28.124Z,5.52
2023-01-29T10:57:30.322Z,5.53
2023-01-29T10:58:32.886Z,5.55
2023-01-29T10:59:39.002Z,5.58
2023-01-29T11:00:41.627Z,5.6
2023-01-29T11:01:44.720Z,5.61
2023-01-29T11:02:54.479Z,5.64
2023-01-29T11:03:56.994Z,5.68
2023-01-29T11:05:03.117Z,5.69
2023-01-29T11:06:35.011Z,5.72
2023-01-29T11:09:11.486Z,5.8
2023-01-29T11:10:23.682Z,5.81
2023-01-29T11:11:26.491Z,5.82
2023-01-29T11:12:29.037Z,5.83
2023-01-29T11:13:37.888Z,5.86
2023-01-29T11:14:51.314Z,5.88
2023-01-29T11:15:53.476Z,5.87
2023-01-29T11:16:56.232Z,5.86
2023-01-29T11:18:37.965Z,5.81
2023-01-29T11:21:09.334Z,5.79
2023-01-29T11:22:30.907Z,5.83
2023-01-29T11:23:39.706Z,5.83
2023-01-29T11:24:41.425Z,5.83
2023-01-29T11:25:44.043Z,5.84
2023-01-29T11:26:46.713Z,5.85
2023-01-29T11:27:49.392Z,5.86
2023-01-29T11:28:52.032Z,5.87
2023-01-29T11:29:54.706Z,5.88
2023-01-29T11:30:57.878Z,5.87
2023-01-29T11:32:00.651Z,5.86
2023-01-29T11:33:03.298Z,5.84
2023-01-29T11:34:05.966Z,5.8
2023-01-29T11:35:08.622Z,5.81
2023-01-29T11:36:11.327Z,5.84
2023-01-29T11:37:13.985Z,5.87
2023-01-29T11:38:16.683Z,5.9
2023-01-29T11:39:19.409Z,5.9
2023-01-29T11:40:22.101Z,5.92
2023-01-29T11:41:24.732Z,5.91
2023-01-29T11:42:27.414Z,5.9
2023-01-29T11:43:30.090Z,5.92
2023-01-29T11:44:32.779Z,5.93
2023-01-29T11:45:35.439Z,5.94
2023-01-29T11:46:38.289Z,5.96
2023-01-29T11:47:40.988Z,5.93
2023-01-29T11:48:43.659Z,5.87
2023-01-29T11:49:46.327Z,5.84
2023-01-29T11:50:48.984Z,5.83
2023-01-29T11:51:51.825Z,5.83
2023-01-29T11:52:54.480Z,5.85
2023-01-29T11:53:57.133Z,5.84
2023-01-29T11:54:59.801Z,5.84
2023-01-29T11:56:02.492Z,5.83
2023-01-29T11:57:05.381Z,5.82
2023-01-29T11:58:08.018Z,5.81
2023-01-29T11:59:10.699Z,5.76
2023-01-29T12:00:13.315Z,5.72
2023-01-29T12:01:16.017Z,5.74
2023-01-29T12:02:18.680Z,5.76
2023-01-29T12:03:25.377Z,5.79
2023-01-29T12:04:28.260Z,5.82
2023-01-29T12:05:31.097Z,5.84
2023-01-29T12:06:33.851Z,5.85
2023-01-29T12:07:36.507Z,5.81
2023-01-29T12:08:39.200Z,5.8
2023-01-29T12:09:41.910Z,5.78
2023-01-29T12:10:44.735Z,5.77
2023-01-29T12:11:47.444Z,5.71
2023-01-29T12:12:50.122Z,5.7
2023-01-29T12:13:52.851Z,5.69
2023-01-29T12:14:55.708Z,5.7
2023-01-29T12:15:58.533Z,5.72
2023-01-29T12:17:01.268Z,5.71
2023-01-29T12:18:03.933Z,5.71
2023-01-29T12:19:06.570Z,5.7
2023-01-29T12:20:09.176Z,5.7
2023-01-29T12:21:11.840Z,5.69
2023-01-29T12:22:14.533Z,5.66
2023-01-29T12:23:17.210Z,5.66
2023-01-29T12:24:19.836Z,5.65
2023-01-29T12:25:22.508Z,5.65
2023-01-29T12:26:25.276Z,5.64
2023-01-29T12:27:27.956Z,5.62
2023-01-29T12:28:30.705Z,5.61
2023-01-29T12:29:33.310Z,5.59
2023-01-29T12:30:36.083Z,5.56
2023-01-29T12:31:38.917Z,5.51
2023-01-29T12:32:41.630Z,5.47
2023-01-29T12:33:44.267Z,5.45
2023-01-29T12:34:46.929Z,5.42
2023-01-29T12:35:49.604Z,5.42
2023-01-29T12:36:52.259Z,5.4
2023-01-29T12:37:54.994Z,5.4
2023-01-29T12:38:57.626Z,5.39
2023-01-29T12:40:00.291Z,5.38
2023-01-29T12:41:02.998Z,5.35
2023-01-29T12:42:05.653Z,5.33
2023-01-29T12:43:08.298Z,5.31
2023-01-29T12:44:10.898Z,5.31
2023-01-29T12:45:13.581Z,5.32
2023-01-29T12:46:16.236Z,5.31
2023-01-29T12:47:18.902Z,5.33
2023-01-29T12:49:29.031Z,5.35
2023-01-29T12:50:36.957Z,5.38
2023-01-29T12:51:39.472Z,5.4
2023-01-29T12:52:42.093Z,5.42
2023-01-29T12:53:44.803Z,5.45
2023-01-29T12:54:47.448Z,5.49
2023-01-29T12:55:50.108Z,5.5
2023-01-29T12:56:52.814Z,5.51
2023-01-29T12:57:55.500Z,5.51
2023-01-29T12:58:58.178Z,5.53
2023-01-29T13:00:00.862Z,5.57
2023-01-29T13:01:03.868Z,5.59
2023-01-29T13:02:06.627Z,5.62
2023-01-29T13:03:09.389Z,5.62
2023-01-29T13:04:12.175Z,5.64
2023-01-29T13:05:14.841Z,5.67
2023-01-29T13:06:17.481Z,5.69
2023-01-29T13:07:20.172Z,5.7
2023-01-29T13:08:22.878Z,5.68
2023-01-29T13:09:25.561Z,5.68
2023-01-29T13:10:28.229Z,5.66
2023-01-29T13:11:30.901Z,5.64
2023-01-29T13:12:33.553Z,5.62
2023-01-29T13:13:36.213Z,5.62
2023-01-29T13:14:38.907Z,5.61
2023-01-29T13:15:41.590Z,5.59
2023-01-29T13:16:44.435Z,5.58
2023-01-29T13:17:47.212Z,5.58
2023-01-29T13:18:49.860Z,5.56
2023-01-29T13:19:52.518Z,5.54
2023-01-29T13:20:55.171Z,5.54
2023-01-29T13:21:57.842Z,5.55
2023-01-29T13:23:00.512Z,5.57
2023-01-29T13:24:03.730Z,5.57
2023-01-29T13:25:06.403Z,5.57
2023-01-29T13:26:09.261Z,5.58
2023-01-29T13:27:12.350Z,5.57
2023-01-29T13:28:14.972Z,5.54
2023-01-29T13:29:17.618Z,5.52
2023-01-29T13:30:20.279Z,5.52
2023-01-29T13:31:23.230Z,5.52
2023-01-29T13:32:25.947Z,5.53
2023-01-29T13:33:28.588Z,5.55
2023-01-29T13:34:31.254Z,5.55
2023-01-29T13:35:33.916Z,5.57
2023-01-29T13:36:36.585Z,5.58
2023-01-29T13:37:39.308Z,5.59
2023-01-29T13:38:42.207Z,5.61
2023-01-29T13:39:44.934Z,5.62
2023-01-29T13:40:47.589Z,5.6
2023-01-29T13:41:50.365Z,5.61
2023-01-29T13:42:53.019Z,5.62
2023-01-29T13:43:55.652Z,5.62
2023-01-29T13:44:58.362Z,5.64
2023-01-29T13:46:01.168Z,5.68
2023-01-29T13:47:03.885Z,5.69
2023-01-29T13:48:06.571Z,5.7
2023-01-29T13:49:09.169Z,5.7
2023-01-29T13:50:11.809Z,5.68
2023-01-29T13:51:14.493Z,5.68
2023-01-29T13:52:17.141Z,5.67
2023-01-29T13:53:19.921Z,5.67
2023-01-29T13:54:22.619Z,5.65
2023-01-29T13:55:25.349Z,5.66
2023-01-29T13:56:28.041Z,5.69
2023-01-29T13:57:30.692Z,5.69
2023-01-29T13:58:33.466Z,5.7
2023-01-29T13:59:36.132Z,5.71
2023-01-29T14:00:38.727Z,5.72
2023-01-29T14:01:41.404Z,5.74
2023-01-29T14:02:44.173Z,5.73
2023-01-29T14:04:04.704Z,5.72
2023-01-29T14:05:09.260Z,5.7
2023-01-29T14:06:11.739Z,5.68
2023-01-29T14:07:14.370Z,5.65
2023-01-29T14:08:17.029Z,5.62
2023-01-29T14:09:19.708Z,5.55
2023-01-29T14:10:22.350Z,5.51
2023-01-29T14:11:24.992Z,5.53
2023-01-29T14:12:27.631Z,5.52
2023-01-29T14:13:30.311Z,5.54
2023-01-29T14:14:32.965Z,5.54
2023-01-29T14:15:35.612Z,5.54
2023-01-29T14:16:41.889Z,5.52